createdAt,value
2019-02-25T00:04:35.745Z,8.57
2019-02-25T00:09:39.329Z,7.93
2019-02-25T00:14:43.392Z,8.80
2019-02-25T00:19:47.033Z,7.70
2019-02-25T00:24:50.697Z,6.33
2019-02-25T00:29:54.276Z,7.07
2019-02-25T00:34:58.175Z,5.80
2019-02-25T00:40:01.757Z,5.77
2019-02-25T00:45:08.691Z,6.20
2019-02-25T00:50:19.893Z,6.47
2019-02-25T00:55:23.826Z,7.00
2019-02-25T01:00:27.704Z,6.83
2019-02-25T01:05:31.427Z,6.77
2019-02-25T01:10:35.076Z,5.70
2019-02-25T01:15:38.672Z,5.70
2019-02-25T01:20:42.621Z,5.37
2019-02-25T01:25:46.213Z,5.53
2019-02-25T01:30:49.786Z,7.00
2019-02-25T01:35:54.033Z,5.70
2019-02-25T01:40:57.617Z,5.37
2019-02-25T01:46:01.264Z,5.50
2019-02-25T01:51:04.954Z,5.53
2019-02-25T01:56:08.673Z,5.20
2019-02-25T02:01:12.249Z,5.50
2019-02-25T02:06:15.833Z,5.87
2019-02-25T02:11:19.430Z,6.03
2019-02-25T02:16:23.086Z,6.37
2019-02-25T02:21:26.673Z,6.20
2019-02-25T02:26:30.253Z,6.83
2019-02-25T02:31:33.918Z,6.77
2019-02-25T02:36:37.881Z,7.30
2019-02-25T02:42:01.688Z,6.90
2019-02-25T02:47:14.103Z,7.30
2019-02-25T02:52:17.681Z,7.20
2019-02-25T02:57:21.273Z,7.13
2019-02-25T03:02:24.858Z,7.07
2019-02-25T03:07:28.445Z,6.63
2019-02-25T03:12:32.025Z,7.43
2019-02-25T03:17:35.618Z,7.27
2019-02-25T03:22:39.341Z,7.30
2019-02-25T03:27:42.997Z,8.47
2019-02-25T03:32:47.004Z,7.77
2019-02-25T03:37:50.741Z,7.47
2019-02-25T03:42:54.332Z,8.30
2019-02-25T03:47:57.908Z,8.10
2019-02-25T03:53:01.789Z,8.20
2019-02-25T03:58:05.506Z,8.67
2019-02-25T04:03:09.476Z,8.67
2019-02-25T04:08:13.053Z,7.83
2019-02-25T04:13:16.650Z,7.80
2019-02-25T04:18:20.650Z,8.60
2019-02-25T04:23:24.303Z,8.63
2019-02-25T04:28:27.891Z,10.70
2019-02-25T04:33:31.481Z,9.40
2019-02-25T04:38:35.411Z,8.80
2019-02-25T04:43:38.997Z,9.13
2019-02-25T04:48:42.578Z,8.97
2019-02-25T04:53:46.229Z,8.17
2019-02-25T04:58:49.823Z,8.80
2019-02-25T05:03:53.765Z,8.70
2019-02-25T05:08:57.760Z,8.63
2019-02-25T05:14:01.345Z,8.17
2019-02-25T05:19:04.995Z,9.50
2019-02-25T05:24:08.572Z,8.97
2019-02-25T05:29:12.230Z,8.33
2019-02-25T05:34:15.833Z,9.03
2019-02-25T05:39:19.430Z,8.97
2019-02-25T05:44:23.069Z,10.60
2019-02-25T05:49:27.011Z,8.80
2019-02-25T05:54:30.911Z,10.50
2019-02-25T05:59:34.825Z,16.40
2019-02-25T06:04:38.502Z,10.00
2019-02-25T06:09:42.144Z,9.57
2019-02-25T06:14:46.208Z,9.37
2019-02-25T06:19:49.792Z,10.90
2019-02-25T06:24:53.388Z,10.20
2019-02-25T06:29:57.042Z,9.97
2019-02-25T06:35:00.985Z,9.20
2019-02-25T06:40:06.413Z,9.00
2019-02-25T06:45:12.903Z,12.07
2019-02-25T06:50:16.572Z,12.20
2019-02-25T06:55:20.221Z,9.10
2019-02-25T07:00:24.208Z,10.03
2019-02-25T07:05:32.016Z,10.23
2019-02-25T07:10:40.375Z,10.20
2019-02-25T07:15:51.678Z,8.67
2019-02-25T07:20:56.910Z,8.47
2019-02-25T07:26:04.569Z,9.63
2019-02-25T07:31:19.192Z,7.93
2019-02-25T07:36:36.763Z,8.30
2019-02-25T07:41:44.637Z,7.77
2019-02-25T07:47:06.052Z,8.13
2019-02-25T07:52:11.408Z,9.30
2019-02-25T07:57:34.945Z,8.40
2019-02-25T08:02:43.118Z,8.40
2019-02-25T08:08:03.349Z,7.93
2019-02-25T08:13:23.923Z,7.90
2019-02-25T08:18:32.252Z,8.47
2019-02-25T08:23:37.516Z,8.57
2019-02-25T08:28:43.038Z,7.20
2019-02-25T08:34:06.070Z,7.63
2019-02-25T08:39:20.645Z,7.87
2019-02-25T08:44:38.150Z,7.50
2019-02-25T08:49:43.885Z,8.53
2019-02-25T08:54:47.886Z,7.70
2019-02-25T08:59:51.925Z,8.17
2019-02-25T09:04:55.585Z,8.47
2019-02-25T09:09:59.233Z,9.13
2019-02-25T09:15:02.933Z,9.20
2019-02-25T09:20:06.666Z,8.70
2019-02-25T09:25:13.245Z,8.90
2019-02-25T09:30:18.954Z,9.70
2019-02-25T09:35:22.534Z,9.57
2019-02-25T09:40:26.122Z,10.30
2019-02-25T09:45:29.771Z,11.00
2019-02-25T09:50:33.439Z,21.57
2019-02-25T09:55:37.163Z,19.63
2019-02-25T10:00:41.145Z,11.47
2019-02-25T10:05:46.254Z,9.63
2019-02-25T10:10:50.436Z,9.50
2019-02-25T10:15:54.025Z,8.87
2019-02-25T10:20:57.757Z,9.70
2019-02-25T10:26:01.419Z,9.40
2019-02-25T10:31:05.440Z,10.07
2019-02-25T10:36:09.160Z,10.17
2019-02-25T10:41:13.066Z,9.20
2019-02-25T10:46:17.704Z,9.33
2019-02-25T10:51:21.745Z,8.73
2019-02-25T10:56:34.305Z,8.33
2019-02-25T11:01:39.243Z,8.07
2019-02-25T11:06:43.366Z,7.90
2019-02-25T11:11:48.563Z,7.37
2019-02-25T11:16:53.029Z,7.50
2019-02-25T11:21:56.607Z,7.40
2019-02-25T11:27:01.066Z,7.50
2019-02-25T11:32:06.297Z,7.23
2019-02-25T11:37:09.966Z,7.60
2019-02-25T11:42:16.428Z,7.47
2019-02-25T11:47:18.859Z,7.17
2019-02-25T11:52:22.604Z,7.10
2019-02-25T11:57:26.790Z,7.73
2019-02-25T12:02:30.361Z,7.23
2019-02-25T12:07:34.035Z,7.77
2019-02-25T12:12:37.761Z,7.97
2019-02-25T12:17:41.412Z,7.70
2019-02-25T12:22:45.069Z,7.60
2019-02-25T12:27:48.996Z,7.83
2019-02-25T12:32:52.719Z,8.33
2019-02-25T12:37:56.371Z,8.57
2019-02-25T12:42:59.907Z,7.97
2019-02-25T12:48:03.626Z,7.43
2019-02-25T12:53:07.632Z,7.63
2019-02-25T12:58:11.245Z,7.70
2019-02-25T13:03:15.294Z,7.67
2019-02-25T13:08:18.872Z,7.93
2019-02-25T13:13:22.836Z,8.43
2019-02-25T13:18:26.740Z,8.47
2019-02-25T13:23:30.326Z,8.07
2019-02-25T13:28:33.955Z,8.30
2019-02-25T13:33:37.554Z,8.50
2019-02-25T13:38:41.138Z,8.87
2019-02-25T13:43:45.161Z,9.47
2019-02-25T13:48:48.748Z,8.70
2019-02-25T13:53:52.409Z,8.50
2019-02-25T13:58:55.993Z,9.23
2019-02-25T14:03:59.658Z,10.20
2019-02-25T14:09:04.945Z,9.53
2019-02-25T14:14:08.604Z,10.30
2019-02-25T14:19:12.929Z,10.53
2019-02-25T14:24:18.422Z,10.73
2019-02-25T14:29:26.235Z,11.30
2019-02-25T14:34:27.808Z,10.77
2019-02-25T14:39:32.959Z,11.37
2019-02-25T14:44:38.088Z,11.50
2019-02-25T14:49:42.920Z,12.30
2019-02-25T14:54:46.634Z,11.30
2019-02-25T14:59:50.283Z,11.57
2019-02-25T15:04:54.511Z,10.93
2019-02-25T15:09:59.969Z,10.83
2019-02-25T15:15:04.841Z,10.57
2019-02-25T15:20:12.646Z,10.10
2019-02-25T15:25:18.126Z,10.07
2019-02-25T15:30:30.824Z,10.47
2019-02-25T15:35:36.971Z,9.47
2019-02-25T15:40:40.379Z,9.40
2019-02-25T15:45:45.260Z,9.80
2019-02-25T15:50:52.970Z,9.97
2019-02-25T15:56:01.069Z,9.97
2019-02-25T16:01:02.949Z,9.57
2019-02-25T16:06:08.362Z,10.30
2019-02-25T16:11:14.040Z,10.07
2019-02-25T16:16:19.999Z,14.40
2019-02-25T16:21:24.467Z,14.03
2019-02-25T16:26:29.220Z,13.67
2019-02-25T16:31:33.719Z,11.03
2019-02-25T16:36:38.123Z,12.10
2019-02-25T16:41:43.480Z,11.40
2019-02-25T16:46:48.957Z,11.97
2019-02-25T16:51:53.185Z,13.33
2019-02-25T16:56:58.048Z,18.33
2019-02-25T17:02:02.307Z,18.00
2019-02-25T17:07:06.929Z,14.73
2019-02-25T17:12:10.584Z,13.30
2019-02-25T17:17:14.242Z,11.63
2019-02-25T17:22:17.894Z,11.93
2019-02-25T17:27:21.481Z,13.07
2019-02-25T17:32:25.531Z,17.97
2019-02-25T17:37:31.371Z,17.20
2019-02-25T17:42:34.807Z,11.60
2019-02-25T17:47:39.671Z,12.27
2019-02-25T17:52:45.162Z,12.97
2019-02-25T17:57:50.327Z,10.87
2019-02-25T18:02:56.680Z,11.30
2019-02-25T18:08:00.553Z,12.17
2019-02-25T18:13:06.705Z,11.70
2019-02-25T18:18:12.536Z,16.30
2019-02-25T18:23:15.845Z,16.60
2019-02-25T18:28:20.143Z,16.20
2019-02-25T18:33:26.888Z,15.50
2019-02-25T18:38:31.682Z,12.87
2019-02-25T18:43:35.468Z,10.67
2019-02-25T18:48:40.710Z,11.60
2019-02-25T18:53:44.826Z,12.47
2019-02-25T18:58:48.644Z,13.13
2019-02-25T19:03:54.311Z,12.43
2019-02-25T19:08:58.304Z,11.63
2019-02-25T19:14:03.696Z,14.73
2019-02-25T19:19:07.963Z,12.97
2019-02-25T19:24:14.304Z,14.53
2019-02-25T19:29:19.609Z,21.80
2019-02-25T19:34:23.596Z,19.03
2019-02-25T19:39:27.264Z,18.37
2019-02-25T19:44:32.105Z,21.80
2019-02-25T19:49:37.131Z,21.50
2019-02-25T19:54:43.352Z,20.47
2019-02-25T19:59:50.265Z,13.10
2019-02-25T20:04:52.482Z,11.67
2019-02-25T20:09:57.946Z,13.17
2019-02-25T20:15:01.850Z,7.53
2019-02-25T20:20:10.981Z,8.13
2019-02-25T20:25:16.825Z,12.30
2019-02-25T20:30:21.950Z,12.27
2019-02-25T20:35:27.263Z,10.60
2019-02-25T20:40:32.998Z,11.30
2019-02-25T20:45:37.768Z,14.80
2019-02-25T20:50:41.438Z,10.07
2019-02-25T20:55:45.193Z,5.80
2019-02-25T21:00:50.917Z,11.13
2019-02-25T21:05:54.750Z,8.63
2019-02-25T21:10:59.895Z,14.13
2019-02-25T21:16:04.878Z,9.70
2019-02-25T21:21:11.273Z,6.57
2019-02-25T21:26:14.228Z,4.80
2019-02-25T21:31:19.556Z,4.23
2019-02-25T21:36:23.113Z,4.42
2019-02-25T21:41:26.770Z,3.87
2019-02-25T21:46:31.596Z,3.70
2019-02-25T21:51:36.887Z,7.37
2019-02-25T21:56:41.293Z,10.03
2019-02-25T22:01:44.949Z,9.27
2019-02-25T22:06:51.017Z,6.00
2019-02-25T22:11:54.582Z,3.57
2019-02-25T22:16:58.922Z,4.10
2019-02-25T22:22:04.954Z,3.20
2019-02-25T22:27:08.916Z,3.73
2019-02-25T22:32:12.759Z,3.50
2019-02-25T22:37:17.486Z,4.30
2019-02-25T22:42:21.569Z,3.53
2019-02-25T22:47:25.507Z,3.43
2019-02-25T22:52:31.408Z,3.80
2019-02-25T22:57:35.069Z,4.60
2019-02-25T23:02:41.192Z,3.50
2019-02-25T23:07:45.950Z,3.17
2019-02-25T23:12:49.969Z,3.40
2019-02-25T23:17:53.545Z,2.77
2019-02-25T23:22:59.489Z,3.70
2019-02-25T23:28:02.915Z,2.80
2019-02-25T23:33:08.030Z,3.00
2019-02-25T23:38:11.756Z,2.80
2019-02-25T23:43:16.736Z,4.03
2019-02-25T23:48:20.570Z,4.10
2019-02-25T23:53:26.094Z,3.37
2019-02-25T23:58:29.369Z,3.07
